Daxing, China
Current Conditions -  °F | °C
As of 6:00 AM on Friday 24 Oct 2014 (Local Time) from ZBAA Reporting Station
Haze Haze  
Wind Chill: 44°   Ceiling: Unl
Heat Index: 46°   Visibility: 2mi
Dew Point: 45°   Wind: 4mph
Humidity: 93%   Direction: 350°N
Pressure: 29.88"   Gusts: NA
Location:  39.72°N, 116.35°E
Report Text: ZBAA 232200Z 35002MPS 3200 BR NSC 08/07 Q1012 BECMG TL2240 2000BR
Loading
Personal Weather Stations






























Interactive Weather Map
Tropical Storm Tracking
New forecast layout! Learn more

10-Day Weather Forecast

Advertisements
Track Severe Weather on mobile